sensor_id;sensor_type;location;lat;lon;timestamp;P1;P2;P0
57049;PMS7003;42935;50.966;16.992;2023-01-05T00:03:02;0;0;0
57049;PMS7003;42935;50.966;16.992;2023-01-05T00:06:13;1;0;0
57049;PMS7003;42935;50.966;16.992;2023-01-05T00:09:26;0;0;0
57049;PMS7003;42935;50.966;16.992;2023-01-05T00:12:37;0;0;0
57049;PMS7003;42935;50.966;16.992;2023-01-05T00:15:57;0;0;0
57049;PMS7003;42935;50.966;16.992;2023-01-05T00:19:17;0;0;0
57049;PMS7003;42935;50.966;16.992;2023-01-05T00:25:54;0;0;0
57049;PMS7003;42935;50.966;16.992;2023-01-05T00:29:03;5;3;2
57049;PMS7003;42935;50.966;16.992;2023-01-05T00:32:13;2;1;1
57049;PMS7003;42935;50.966;16.992;2023-01-05T00:35:23;0;0;0
57049;PMS7003;42935;50.966;16.992;2023-01-05T00:38:32;0;0;0
57049;PMS7003;42935;50.966;16.992;2023-01-05T00:41:42;0;0;0
57049;PMS7003;42935;50.966;16.992;2023-01-05T00:44:52;0;0;0
57049;PMS7003;42935;50.966;16.992;2023-01-05T00:47:57;0;0;0
57049;PMS7003;42935;50.966;16.992;2023-01-05T00:51:02;0;0;0
57049;PMS7003;42935;50.966;16.992;2023-01-05T00:54:10;0;0;0
57049;PMS7003;42935;50.966;16.992;2023-01-05T00:57:20;0;0;0
57049;PMS7003;42935;50.966;16.992;2023-01-05T01:00:28;0;0;0
57049;PMS7003;42935;50.966;16.992;2023-01-05T01:03:34;0;0;0
57049;PMS7003;42935;50.966;16.992;2023-01-05T01:06:41;0;0;0
57049;PMS7003;42935;50.966;16.992;2023-01-05T01:09:51;0;0;0
57049;PMS7003;42935;50.966;16.992;2023-01-05T01:13:01;0;0;0
57049;PMS7003;42935;50.966;16.992;2023-01-05T01:16:09;0;0;0
57049;PMS7003;42935;50.966;16.992;2023-01-05T01:19:17;0;0;0
57049;PMS7003;42935;50.966;16.992;2023-01-05T01:22:24;2;0;0
57049;PMS7003;42935;50.966;16.992;2023-01-05T01:25:31;0;0;0
57049;PMS7003;42935;50.966;16.992;2023-01-05T01:28:38;0;0;0
57049;PMS7003;42935;50.966;16.992;2023-01-05T01:31:51;0;0;0
57049;PMS7003;42935;50.966;16.992;2023-01-05T01:34:55;0;0;0
57049;PMS7003;42935;50.966;16.992;2023-01-05T01:38:08;1;0;0
57049;PMS7003;42935;50.966;16.992;2023-01-05T01:41:17;0;0;0
57049;PMS7003;42935;50.966;16.992;2023-01-05T01:47:46;0;0;0
57049;PMS7003;42935;50.966;16.992;2023-01-05T01:51:04;0;0;0
57049;PMS7003;42935;50.966;16.992;2023-01-05T01:54:18;0;0;0
57049;PMS7003;42935;50.966;16.992;2023-01-05T01:57:27;1;0;0
57049;PMS7003;42935;50.966;16.992;2023-01-05T02:00:38;1;0;0
57049;PMS7003;42935;50.966;16.992;2023-01-05T02:03:54;1;0;0
57049;PMS7003;42935;50.966;16.992;2023-01-05T02:07:04;1;0;0
57049;PMS7003;42935;50.966;16.992;2023-01-05T02:10:18;1;0;0
57049;PMS7003;42935;50.966;16.992;2023-01-05T02:13:46;0;0;0
57049;PMS7003;42935;50.966;16.992;2023-01-05T02:33:49;3;0;0
57049;PMS7003;42935;50.966;16.992;2023-01-05T02:37:07;0;0;0
57049;PMS7003;42935;50.966;16.992;2023-01-05T02:40:28;1;1;1
57049;PMS7003;42935;50.966;16.992;2023-01-05T02:43:43;0;0;0
57049;PMS7003;42935;50.966;16.992;2023-01-05T02:50:17;1;0;0
57049;PMS7003;42935;50.966;16.992;2023-01-05T02:53:30;0;0;0
57049;PMS7003;42935;50.966;16.992;2023-01-05T03:00:05;2;0;0
57049;PMS7003;42935;50.966;16.992;2023-01-05T03:03:19;0;0;0
57049;PMS7003;42935;50.966;16.992;2023-01-05T03:09:54;1;0;0
57049;PMS7003;42935;50.966;16.992;2023-01-05T03:13:04;1;0;0
57049;PMS7003;42935;50.966;16.992;2023-01-05T03:16:29;0;0;0
57049;PMS7003;42935;50.966;16.992;2023-01-05T03:19:37;3;0;0
57049;PMS7003;42935;50.966;16.992;2023-01-05T03:22:50;0;0;0
57049;PMS7003;42935;50.966;16.992;2023-01-05T03:26:11;2;0;0
57049;PMS7003;42935;50.966;16.992;2023-01-05T03:29:32;1;0;0
57049;PMS7003;42935;50.966;16.992;2023-01-05T03:32:56;1;0;0
57049;PMS7003;42935;50.966;16.992;2023-01-05T03:36:27;0;0;0
57049;PMS7003;42935;50.966;16.992;2023-01-05T03:39:39;0;0;0
57049;PMS7003;42935;50.966;16.992;2023-01-05T03:42:44;2;0;0
57049;PMS7003;42935;50.966;16.992;2023-01-05T03:45:57;0;0;0
57049;PMS7003;42935;50.966;16.992;2023-01-05T03:49:04;1;0;0
57049;PMS7003;42935;50.966;16.992;2023-01-05T03:52:43;1;1;0
57049;PMS7003;42935;50.966;16.992;2023-01-05T03:55:52;2;0;0
57049;PMS7003;42935;50.966;16.992;2023-01-05T03:59:02;1;0;0
57049;PMS7003;42935;50.966;16.992;2023-01-05T04:02:11;1;0;0
57049;PMS7003;42935;50.966;16.992;2023-01-05T04:05:18;0;0;0
57049;PMS7003;42935;50.966;16.992;2023-01-05T04:08:23;0;0;0
57049;PMS7003;42935;50.966;16.992;2023-01-05T04:11:33;0;0;0
57049;PMS7003;42935;50.966;16.992;2023-01-05T04:14:40;0;0;0
57049;PMS7003;42935;50.966;16.992;2023-01-05T04:17:50;2;1;0
57049;PMS7003;42935;50.966;16.992;2023-01-05T04:21:01;1;0;0
57049;PMS7003;42935;50.966;16.992;2023-01-05T04:24:11;2;0;0
57049;PMS7003;42935;50.966;16.992;2023-01-05T04:27:21;0;0;0
57049;PMS7003;42935;50.966;16.992;2023-01-05T04:30:28;1;0;0
57049;PMS7003;42935;50.966;16.992;2023-01-05T04:33:37;0;0;0
57049;PMS7003;42935;50.966;16.992;2023-01-05T04:36:40;2;0;0
57049;PMS7003;42935;50.966;16.992;2023-01-05T04:39:45;7;0;0
57049;PMS7003;42935;50.966;16.992;2023-01-05T04:42:54;3;1;0
57049;PMS7003;42935;50.966;16.992;2023-01-05T04:46:03;1;1;0
57049;PMS7003;42935;50.966;16.992;2023-01-05T04:49:13;3;1;0
57049;PMS7003;42935;50.966;16.992;2023-01-05T04:52:22;0;0;0
57049;PMS7003;42935;50.966;16.992;2023-01-05T04:55:31;1;0;0
57049;PMS7003;42935;50.966;16.992;2023-01-05T04:58:36;1;0;0
57049;PMS7003;42935;50.966;16.992;2023-01-05T05:01:43;0;0;0
57049;PMS7003;42935;50.966;16.992;2023-01-05T05:04:52;1;0;0
57049;PMS7003;42935;50.966;16.992;2023-01-05T05:08:01;0;0;0
57049;PMS7003;42935;50.966;16.992;2023-01-05T05:11:06;0;0;0
57049;PMS7003;42935;50.966;16.992;2023-01-05T05:14:11;2;0;0
57049;PMS7003;42935;50.966;16.992;2023-01-05T05:17:18;0;0;0
57049;PMS7003;42935;50.966;16.992;2023-01-05T05:20:25;0;0;0
57049;PMS7003;42935;50.966;16.992;2023-01-05T05:23:38;0;0;0
57049;PMS7003;42935;50.966;16.992;2023-01-05T05:26:45;1;0;0
57049;PMS7003;42935;50.966;16.992;2023-01-05T05:29:57;2;0;0
57049;PMS7003;42935;50.966;16.992;2023-01-05T05:33:02;0;0;0
57049;PMS7003;42935;50.966;16.992;2023-01-05T05:36:11;0;0;0
57049;PMS7003;42935;50.966;16.992;2023-01-05T05:39:25;1;0;0
57049;PMS7003;42935;50.966;16.992;2023-01-05T05:42:32;0;0;0
57049;PMS7003;42935;50.966;16.992;2023-01-05T05:45:41;0;0;0
57049;PMS7003;42935;50.966;16.992;2023-01-05T05:48:51;0;0;0
57049;PMS7003;42935;50.966;16.992;2023-01-05T05:51:59;0;0;0
57049;PMS7003;42935;50.966;16.992;2023-01-05T05:55:06;0;0;0
57049;PMS7003;42935;50.966;16.992;2023-01-05T05:58:12;0;0;0
57049;PMS7003;42935;50.966;16.992;2023-01-05T06:01:17;0;0;0
57049;PMS7003;42935;50.966;16.992;2023-01-05T06:04:23;0;0;0
57049;PMS7003;42935;50.966;16.992;2023-01-05T06:07:28;0;0;0
57049;PMS7003;42935;50.966;16.992;2023-01-05T06:10:36;0;0;0
57049;PMS7003;42935;50.966;16.992;2023-01-05T06:13:46;0;0;0
57049;PMS7003;42935;50.966;16.992;2023-01-05T06:16:55;1;0;0
57049;PMS7003;42935;50.966;16.992;2023-01-05T06:20:05;0;0;0
57049;PMS7003;42935;50.966;16.992;2023-01-05T06:23:12;1;0;0
57049;PMS7003;42935;50.966;16.992;2023-01-05T06:26:21;1;0;0
57049;PMS7003;42935;50.966;16.992;2023-01-05T06:29:28;0;0;0
57049;PMS7003;42935;50.966;16.992;2023-01-05T06:32:37;0;0;0
57049;PMS7003;42935;50.966;16.992;2023-01-05T06:35:53;0;0;0
57049;PMS7003;42935;50.966;16.992;2023-01-05T06:39:05;0;0;0
57049;PMS7003;42935;50.966;16.992;2023-01-05T06:42:10;0;0;0
57049;PMS7003;42935;50.966;16.992;2023-01-05T06:45:15;0;0;0
57049;PMS7003;42935;50.966;16.992;2023-01-05T06:48:25;0;0;0
57049;PMS7003;42935;50.966;16.992;2023-01-05T06:51:32;0;0;0
57049;PMS7003;42935;50.966;16.992;2023-01-05T06:54:39;4;1;0
57049;PMS7003;42935;50.966;16.992;2023-01-05T06:57:49;1;0;0
57049;PMS7003;42935;50.966;16.992;2023-01-05T07:01:04;1;0;0
57049;PMS7003;42935;50.966;16.992;2023-01-05T07:04:11;3;0;0
57049;PMS7003;42935;50.966;16.992;2023-01-05T07:07:17;1;0;0
57049;PMS7003;42935;50.966;16.992;2023-01-05T07:10:27;0;0;0
57049;PMS7003;42935;50.966;16.992;2023-01-05T07:13:32;2;0;0
57049;PMS7003;42935;50.966;16.992;2023-01-05T07:16:38;3;0;0
57049;PMS7003;42935;50.966;16.992;2023-01-05T07:19:43;2;1;0
57049;PMS7003;42935;50.966;16.992;2023-01-05T07:22:50;3;1;0
57049;PMS7003;42935;50.966;16.992;2023-01-05T07:26:04;3;1;0
57049;PMS7003;42935;50.966;16.992;2023-01-05T07:29:17;2;1;1
57049;PMS7003;42935;50.966;16.992;2023-01-05T07:32:22;3;1;1
57049;PMS7003;42935;50.966;16.992;2023-01-05T07:35:29;3;2;2
57049;PMS7003;42935;50.966;16.992;2023-01-05T07:38:40;4;2;2
57049;PMS7003;42935;50.966;16.992;2023-01-05T07:41:47;5;2;2
57049;PMS7003;42935;50.966;16.992;2023-01-05T07:44:55;5;2;1
57049;PMS7003;42935;50.966;16.992;2023-01-05T07:48:05;2;2;1
57049;PMS7003;42935;50.966;16.992;2023-01-05T07:51:15;2;1;0
57049;PMS7003;42935;50.966;16.992;2023-01-05T07:54:26;4;2;2
57049;PMS7003;42935;50.966;16.992;2023-01-05T07:57:35;4;1;0
57049;PMS7003;42935;50.966;16.992;2023-01-05T08:00:45;2;2;1
57049;PMS7003;42935;50.966;16.992;2023-01-05T08:03:54;4;2;1
57049;PMS7003;42935;50.966;16.992;2023-01-05T08:07:06;3;2;1
57049;PMS7003;42935;50.966;16.992;2023-01-05T08:10:13;3;1;1
57049;PMS7003;42935;50.966;16.992;2023-01-05T08:13:35;3;2;1
57049;PMS7003;42935;50.966;16.992;2023-01-05T08:16:55;3;2;1
57049;PMS7003;42935;50.966;16.992;2023-01-05T08:20:05;4;2;1
57049;PMS7003;42935;50.966;16.992;2023-01-05T08:23:12;3;1;1
57049;PMS7003;42935;50.966;16.992;2023-01-05T08:26:21;5;2;2
57049;PMS7003;42935;50.966;16.992;2023-01-05T08:29:31;3;1;1
57049;PMS7003;42935;50.966;16.992;2023-01-05T08:32:36;2;1;1
57049;PMS7003;42935;50.966;16.992;2023-01-05T08:35:46;2;1;1
57049;PMS7003;42935;50.966;16.992;2023-01-05T08:38:54;1;1;0
57049;PMS7003;42935;50.966;16.992;2023-01-05T08:42:02;2;2;1
57049;PMS7003;42935;50.966;16.992;2023-01-05T08:45:08;3;1;1
57049;PMS7003;42935;50.966;16.992;2023-01-05T08:48:16;4;1;1
57049;PMS7003;42935;50.966;16.992;2023-01-05T08:51:32;4;2;1
57049;PMS7003;42935;50.966;16.992;2023-01-05T08:54:37;2;1;1
57049;PMS7003;42935;50.966;16.992;2023-01-05T08:57:46;3;2;1
57049;PMS7003;42935;50.966;16.992;2023-01-05T09:00:56;4;2;2
57049;PMS7003;42935;50.966;16.992;2023-01-05T09:04:06;3;2;1
57049;PMS7003;42935;50.966;16.992;2023-01-05T09:07:14;4;2;1
57049;PMS7003;42935;50.966;16.992;2023-01-05T09:10:25;3;3;2
57049;PMS7003;42935;50.966;16.992;2023-01-05T09:13:36;3;2;2
57049;PMS7003;42935;50.966;16.992;2023-01-05T09:16:43;2;2;1
57049;PMS7003;42935;50.966;16.992;2023-01-05T09:19:49;3;2;1
57049;PMS7003;42935;50.966;16.992;2023-01-05T09:22:54;2;1;1
57049;PMS7003;42935;50.966;16.992;2023-01-05T09:26:05;3;2;1
57049;PMS7003;42935;50.966;16.992;2023-01-05T09:29:12;2;1;0
57049;PMS7003;42935;50.966;16.992;2023-01-05T09:32:21;2;2;1
57049;PMS7003;42935;50.966;16.992;2023-01-05T09:35:26;3;1;1
57049;PMS7003;42935;50.966;16.992;2023-01-05T09:38:37;2;1;0
57049;PMS7003;42935;50.966;16.992;2023-01-05T09:41:53;3;1;1
57049;PMS7003;42935;50.966;16.992;2023-01-05T09:45:03;2;2;1
57049;PMS7003;42935;50.966;16.992;2023-01-05T09:48:14;4;1;1
57049;PMS7003;42935;50.966;16.992;2023-01-05T09:51:26;1;1;0
57049;PMS7003;42935;50.966;16.992;2023-01-05T09:54:38;2;1;1
57049;PMS7003;42935;50.966;16.992;2023-01-05T09:57:52;3;2;1
57049;PMS7003;42935;50.966;16.992;2023-01-05T10:01:08;3;1;1
57049;PMS7003;42935;50.966;16.992;2023-01-05T10:04:24;3;1;1
57049;PMS7003;42935;50.966;16.992;2023-01-05T10:17:42;2;2;1
57049;PMS7003;42935;50.966;16.992;2023-01-05T10:20:55;4;2;1
57049;PMS7003;42935;50.966;16.992;2023-01-05T10:30:53;2;1;1
57049;PMS7003;42935;50.966;16.992;2023-01-05T10:37:29;3;2;1
57049;PMS7003;42935;50.966;16.992;2023-01-05T10:47:24;4;2;2
57049;PMS7003;42935;50.966;16.992;2023-01-05T10:50:36;2;1;1
57049;PMS7003;42935;50.966;16.992;2023-01-05T10:53:54;5;1;0
57049;PMS7003;42935;50.966;16.992;2023-01-05T11:00:17;2;1;1
57049;PMS7003;42935;50.966;16.992;2023-01-05T11:03:32;2;1;1
57049;PMS7003;42935;50.966;16.992;2023-01-05T11:06:42;2;1;1
57049;PMS7003;42935;50.966;16.992;2023-01-05T11:09:49;3;1;0
57049;PMS7003;42935;50.966;16.992;2023-01-05T11:13:02;1;1;1
57049;PMS7003;42935;50.966;16.992;2023-01-05T11:16:12;4;1;1
57049;PMS7003;42935;50.966;16.992;2023-01-05T11:19:30;2;1;1
57049;PMS7003;42935;50.966;16.992;2023-01-05T11:22:40;2;1;1
57049;PMS7003;42935;50.966;16.992;2023-01-05T11:25:53;1;1;1
57049;PMS7003;42935;50.966;16.992;2023-01-05T11:29:13;1;0;0
57049;PMS7003;42935;50.966;16.992;2023-01-05T11:32:21;2;1;1
57049;PMS7003;42935;50.966;16.992;2023-01-05T11:35:29;4;2;1
57049;PMS7003;42935;50.966;16.992;2023-01-05T11:38:37;1;0;0
57049;PMS7003;42935;50.966;16.992;2023-01-05T11:41:45;2;1;1
57049;PMS7003;42935;50.966;16.992;2023-01-05T11:44:50;4;2;2
57049;PMS7003;42935;50.966;16.992;2023-01-05T11:48:01;2;1;1
57049;PMS7003;42935;50.966;16.992;2023-01-05T11:51:31;3;2;1
57049;PMS7003;42935;50.966;16.992;2023-01-05T11:54:35;2;1;1
57049;PMS7003;42935;50.966;16.992;2023-01-05T11:57:49;3;1;0
57049;PMS7003;42935;50.966;16.992;2023-01-05T12:01:06;1;1;0
57049;PMS7003;42935;50.966;16.992;2023-01-05T12:07:39;1;1;1
57049;PMS7003;42935;50.966;16.992;2023-01-05T12:11:04;3;1;1
57049;PMS7003;42935;50.966;16.992;2023-01-05T12:17:38;1;0;0
57049;PMS7003;42935;50.966;16.992;2023-01-05T12:24:25;2;1;1
57049;PMS7003;42935;50.966;16.992;2023-01-05T12:31:12;3;1;1
57049;PMS7003;42935;50.966;16.992;2023-01-05T12:37:49;4;2;1
57049;PMS7003;42935;50.966;16.992;2023-01-05T12:41:09;3;3;1
57049;PMS7003;42935;50.966;16.992;2023-01-05T12:47:50;2;1;1
57049;PMS7003;42935;50.966;16.992;2023-01-05T12:51:09;2;1;1
57049;PMS7003;42935;50.966;16.992;2023-01-05T12:57:47;2;1;1
57049;PMS7003;42935;50.966;16.992;2023-01-05T13:01:02;3;2;2
57049;PMS7003;42935;50.966;16.992;2023-01-05T13:10:59;1;1;1
57049;PMS7003;42935;50.966;16.992;2023-01-05T13:17:26;1;0;0
57049;PMS7003;42935;50.966;16.992;2023-01-05T13:24:01;3;1;1
57049;PMS7003;42935;50.966;16.992;2023-01-05T13:27:16;0;0;0
57049;PMS7003;42935;50.966;16.992;2023-01-05T13:30:45;1;0;0
57049;PMS7003;42935;50.966;16.992;2023-01-05T13:40:27;3;1;1
57049;PMS7003;42935;50.966;16.992;2023-01-05T13:43:46;1;1;1
57049;PMS7003;42935;50.966;16.992;2023-01-05T13:53:51;2;2;1
57049;PMS7003;42935;50.966;16.992;2023-01-05T13:57:05;2;1;1
57049;PMS7003;42935;50.966;16.992;2023-01-05T14:03:38;3;2;2
57049;PMS7003;42935;50.966;16.992;2023-01-05T14:06:58;4;2;2
57049;PMS7003;42935;50.966;16.992;2023-01-05T14:16:50;1;1;1
57049;PMS7003;42935;50.966;16.992;2023-01-05T14:20:00;2;0;0
57049;PMS7003;42935;50.966;16.992;2023-01-05T14:33:07;2;1;1
57049;PMS7003;42935;50.966;16.992;2023-01-05T14:39:35;1;1;1
57049;PMS7003;42935;50.966;16.992;2023-01-05T14:42:50;1;1;1
57049;PMS7003;42935;50.966;16.992;2023-01-05T14:46:01;3;2;1
57049;PMS7003;42935;50.966;16.992;2023-01-05T14:49:24;1;1;0
57049;PMS7003;42935;50.966;16.992;2023-01-05T15:02:32;1;1;1
57049;PMS7003;42935;50.966;16.992;2023-01-05T15:05:59;2;1;1
57049;PMS7003;42935;50.966;16.992;2023-01-05T15:09:23;2;2;1
57049;PMS7003;42935;50.966;16.992;2023-01-05T15:19:55;1;1;1
57049;PMS7003;42935;50.966;16.992;2023-01-05T15:30:02;2;2;1
57049;PMS7003;42935;50.966;16.992;2023-01-05T15:33:32;18;12;6
57049;PMS7003;42935;50.966;16.992;2023-01-05T15:40:02;11;4;2
57049;PMS7003;42935;50.966;16.992;2023-01-05T15:43:15;1;0;0
57049;PMS7003;42935;50.966;16.992;2023-01-05T15:46:31;5;2;1
57049;PMS7003;42935;50.966;16.992;2023-01-05T15:49:42;29;17;8
57049;PMS7003;42935;50.966;16.992;2023-01-05T15:52:52;13;6;3
57049;PMS7003;42935;50.966;16.992;2023-01-05T15:59:38;13;7;3
57049;PMS7003;42935;50.966;16.992;2023-01-05T16:02:52;17;12;6
57049;PMS7003;42935;50.966;16.992;2023-01-05T16:05:59;1;0;0
57049;PMS7003;42935;50.966;16.992;2023-01-05T16:12:36;2;0;0
57049;PMS7003;42935;50.966;16.992;2023-01-05T16:15:48;3;0;0
57049;PMS7003;42935;50.966;16.992;2023-01-05T16:19:08;0;0;0
57049;PMS7003;42935;50.966;16.992;2023-01-05T16:26:14;0;0;0
57049;PMS7003;42935;50.966;16.992;2023-01-05T16:40:30;0;0;0
57049;PMS7003;42935;50.966;16.992;2023-01-05T16:43:50;0;0;0
57049;PMS7003;42935;50.966;16.992;2023-01-05T16:47:06;0;0;0
57049;PMS7003;42935;50.966;16.992;2023-01-05T16:53:34;2;0;0
57049;PMS7003;42935;50.966;16.992;2023-01-05T16:56:53;1;1;0
57049;PMS7003;42935;50.966;16.992;2023-01-05T17:03:30;0;0;0
57049;PMS7003;42935;50.966;16.992;2023-01-05T17:06:40;0;0;0
57049;PMS7003;42935;50.966;16.992;2023-01-05T17:09:53;1;0;0
57049;PMS7003;42935;50.966;16.992;2023-01-05T17:13:03;1;0;0
57049;PMS7003;42935;50.966;16.992;2023-01-05T17:16:12;2;0;0
57049;PMS7003;42935;50.966;16.992;2023-01-05T17:19:23;0;0;0
57049;PMS7003;42935;50.966;16.992;2023-01-05T17:22:32;2;0;0
57049;PMS7003;42935;50.966;16.992;2023-01-05T17:25:43;0;0;0
57049;PMS7003;42935;50.966;16.992;2023-01-05T17:28:50;1;0;0
57049;PMS7003;42935;50.966;16.992;2023-01-05T17:32:06;2;0;0
57049;PMS7003;42935;50.966;16.992;2023-01-05T17:35:15;1;1;0
57049;PMS7003;42935;50.966;16.992;2023-01-05T17:38:20;1;1;0
57049;PMS7003;42935;50.966;16.992;2023-01-05T17:41:25;3;1;1
57049;PMS7003;42935;50.966;16.992;2023-01-05T17:44:33;1;1;1
57049;PMS7003;42935;50.966;16.992;2023-01-05T17:47:43;1;1;0
57049;PMS7003;42935;50.966;16.992;2023-01-05T17:50:50;1;1;0
57049;PMS7003;42935;50.966;16.992;2023-01-05T17:53:55;1;0;0
57049;PMS7003;42935;50.966;16.992;2023-01-05T17:57:12;3;1;1
57049;PMS7003;42935;50.966;16.992;2023-01-05T18:00:19;2;1;0
57049;PMS7003;42935;50.966;16.992;2023-01-05T18:03:28;2;1;1
57049;PMS7003;42935;50.966;16.992;2023-01-05T18:06:37;1;1;1
57049;PMS7003;42935;50.966;16.992;2023-01-05T18:09:46;2;1;0
57049;PMS7003;42935;50.966;16.992;2023-01-05T18:12:55;3;1;1
57049;PMS7003;42935;50.966;16.992;2023-01-05T18:16:07;2;0;0
57049;PMS7003;42935;50.966;16.992;2023-01-05T18:19:14;1;0;0
57049;PMS7003;42935;50.966;16.992;2023-01-05T18:22:23;2;1;1
57049;PMS7003;42935;50.966;16.992;2023-01-05T18:25:28;1;1;1
57049;PMS7003;42935;50.966;16.992;2023-01-05T18:28:34;1;0;0
57049;PMS7003;42935;50.966;16.992;2023-01-05T18:31:40;1;1;0
57049;PMS7003;42935;50.966;16.992;2023-01-05T18:34:50;1;0;0
57049;PMS7003;42935;50.966;16.992;2023-01-05T18:37:57;2;1;1
57049;PMS7003;42935;50.966;16.992;2023-01-05T18:41:39;2;1;0
57049;PMS7003;42935;50.966;16.992;2023-01-05T18:44:49;2;1;1
57049;PMS7003;42935;50.966;16.992;2023-01-05T18:47:56;2;1;1
57049;PMS7003;42935;50.966;16.992;2023-01-05T18:51:06;1;1;0
57049;PMS7003;42935;50.966;16.992;2023-01-05T18:54:16;3;1;1
57049;PMS7003;42935;50.966;16.992;2023-01-05T18:57:26;2;1;1
57049;PMS7003;42935;50.966;16.992;2023-01-05T19:00:37;4;1;1
57049;PMS7003;42935;50.966;16.992;2023-01-05T19:03:45;2;2;1
57049;PMS7003;42935;50.966;16.992;2023-01-05T19:06:54;2;1;0
57049;PMS7003;42935;50.966;16.992;2023-01-05T19:10:01;3;1;1
57049;PMS7003;42935;50.966;16.992;2023-01-05T19:13:08;2;1;1
57049;PMS7003;42935;50.966;16.992;2023-01-05T19:16:17;3;2;1
57049;PMS7003;42935;50.966;16.992;2023-01-05T19:19:24;2;0;0
57049;PMS7003;42935;50.966;16.992;2023-01-05T19:22:31;3;1;1
57049;PMS7003;42935;50.966;16.992;2023-01-05T19:25:41;2;0;0
57049;PMS7003;42935;50.966;16.992;2023-01-05T19:28:50;1;1;0
57049;PMS7003;42935;50.966;16.992;2023-01-05T19:32:01;4;1;1
57049;PMS7003;42935;50.966;16.992;2023-01-05T19:35:10;2;1;1
57049;PMS7003;42935;50.966;16.992;2023-01-05T19:38:19;3;1;1
57049;PMS7003;42935;50.966;16.992;2023-01-05T19:41:24;4;3;1
57049;PMS7003;42935;50.966;16.992;2023-01-05T19:44:31;5;2;1
57049;PMS7003;42935;50.966;16.992;2023-01-05T19:47:40;6;4;3
57049;PMS7003;42935;50.966;16.992;2023-01-05T19:54:06;45;27;15
57049;PMS7003;42935;50.966;16.992;2023-01-05T19:57:18;49;31;17
57049;PMS7003;42935;50.966;16.992;2023-01-05T20:00:25;29;17;10
57049;PMS7003;42935;50.966;16.992;2023-01-05T20:03:34;30;21;10
57049;PMS7003;42935;50.966;16.992;2023-01-05T20:06:46;12;7;4
57049;PMS7003;42935;50.966;16.992;2023-01-05T20:09:55;9;4;2
57049;PMS7003;42935;50.966;16.992;2023-01-05T20:13:02;25;16;9
57049;PMS7003;42935;50.966;16.992;2023-01-05T20:16:11;38;26;13
57049;PMS7003;42935;50.966;16.992;2023-01-05T20:19:21;6;4;2
57049;PMS7003;42935;50.966;16.992;2023-01-05T20:22:30;9;5;2
57049;PMS7003;42935;50.966;16.992;2023-01-05T20:25:39;39;23;13
57049;PMS7003;42935;50.966;16.992;2023-01-05T20:28:48;42;29;16
57049;PMS7003;42935;50.966;16.992;2023-01-05T20:32:00;12;7;4
57049;PMS7003;42935;50.966;16.992;2023-01-05T20:35:13;2;2;1
57049;PMS7003;42935;50.966;16.992;2023-01-05T20:38:22;5;1;1
57049;PMS7003;42935;50.966;16.992;2023-01-05T20:41:32;22;13;8
57049;PMS7003;42935;50.966;16.992;2023-01-05T20:45:13;20;11;7
57049;PMS7003;42935;50.966;16.992;2023-01-05T20:48:26;12;8;6
57049;PMS7003;42935;50.966;16.992;2023-01-05T20:51:36;6;2;2
57049;PMS7003;42935;50.966;16.992;2023-01-05T20:54:41;4;3;2
57049;PMS7003;42935;50.966;16.992;2023-01-05T20:57:46;7;2;2
57049;PMS7003;42935;50.966;16.992;2023-01-05T21:00:57;5;3;2
57049;PMS7003;42935;50.966;16.992;2023-01-05T21:04:06;8;6;4
57049;PMS7003;42935;50.966;16.992;2023-01-05T21:07:16;6;2;2
57049;PMS7003;42935;50.966;16.992;2023-01-05T21:10:22;2;1;1
57049;PMS7003;42935;50.966;16.992;2023-01-05T21:13:33;3;2;1
57049;PMS7003;42935;50.966;16.992;2023-01-05T21:16:44;4;0;0
57049;PMS7003;42935;50.966;16.992;2023-01-05T21:19:55;1;1;1
57049;PMS7003;42935;50.966;16.992;2023-01-05T21:23:02;0;0;0
57049;PMS7003;42935;50.966;16.992;2023-01-05T21:26:11;0;0;0
57049;PMS7003;42935;50.966;16.992;2023-01-05T21:29:17;1;1;1
57049;PMS7003;42935;50.966;16.992;2023-01-05T21:32:26;1;0;0
57049;PMS7003;42935;50.966;16.992;2023-01-05T21:35:35;2;1;0
57049;PMS7003;42935;50.966;16.992;2023-01-05T21:38:49;1;1;0
57049;PMS7003;42935;50.966;16.992;2023-01-05T21:42:00;1;0;0
57049;PMS7003;42935;50.966;16.992;2023-01-05T21:45:16;0;0;0
57049;PMS7003;42935;50.966;16.992;2023-01-05T21:48:26;1;0;0
57049;PMS7003;42935;50.966;16.992;2023-01-05T21:51:33;2;0;0
57049;PMS7003;42935;50.966;16.992;2023-01-05T21:54:49;2;0;0
57049;PMS7003;42935;50.966;16.992;2023-01-05T21:58:07;1;0;0
57049;PMS7003;42935;50.966;16.992;2023-01-05T22:01:16;1;0;0
57049;PMS7003;42935;50.966;16.992;2023-01-05T22:04:25;0;0;0
57049;PMS7003;42935;50.966;16.992;2023-01-05T22:07:34;1;0;0
57049;PMS7003;42935;50.966;16.992;2023-01-05T22:10:52;1;0;0
57049;PMS7003;42935;50.966;16.992;2023-01-05T22:14:07;2;0;0
57049;PMS7003;42935;50.966;16.992;2023-01-05T22:17:14;2;0;0
57049;PMS7003;42935;50.966;16.992;2023-01-05T22:20:21;1;0;0
57049;PMS7003;42935;50.966;16.992;2023-01-05T22:23:30;1;0;0
57049;PMS7003;42935;50.966;16.992;2023-01-05T22:26:44;1;0;0
57049;PMS7003;42935;50.966;16.992;2023-01-05T22:29:49;1;0;0
57049;PMS7003;42935;50.966;16.992;2023-01-05T22:33:02;1;0;0
57049;PMS7003;42935;50.966;16.992;2023-01-05T22:36:11;0;0;0
57049;PMS7003;42935;50.966;16.992;2023-01-05T22:39:24;1;0;0
57049;PMS7003;42935;50.966;16.992;2023-01-05T22:42:33;2;0;0
57049;PMS7003;42935;50.966;16.992;2023-01-05T22:45:40;0;0;0
57049;PMS7003;42935;50.966;16.992;2023-01-05T22:48:46;0;0;0
57049;PMS7003;42935;50.966;16.992;2023-01-05T22:52:00;1;0;0
57049;PMS7003;42935;50.966;16.992;2023-01-05T22:55:10;1;0;0
57049;PMS7003;42935;50.966;16.992;2023-01-05T22:58:16;2;0;0
57049;PMS7003;42935;50.966;16.992;2023-01-05T23:01:24;1;0;0
57049;PMS7003;42935;50.966;16.992;2023-01-05T23:04:35;0;0;0
57049;PMS7003;42935;50.966;16.992;2023-01-05T23:07:44;1;0;0
57049;PMS7003;42935;50.966;16.992;2023-01-05T23:14:06;2;0;0
57049;PMS7003;42935;50.966;16.992;2023-01-05T23:17:19;0;0;0
57049;PMS7003;42935;50.966;16.992;2023-01-05T23:20:26;1;0;0
57049;PMS7003;42935;50.966;16.992;2023-01-05T23:23:35;1;0;0
57049;PMS7003;42935;50.966;16.992;2023-01-05T23:26:45;2;0;0
57049;PMS7003;42935;50.966;16.992;2023-01-05T23:29:56;1;0;0
57049;PMS7003;42935;50.966;16.992;2023-01-05T23:33:05;1;0;0
57049;PMS7003;42935;50.966;16.992;2023-01-05T23:36:14;1;0;0
57049;PMS7003;42935;50.966;16.992;2023-01-05T23:39:23;0;0;0
57049;PMS7003;42935;50.966;16.992;2023-01-05T23:42:32;0;0;0
57049;PMS7003;42935;50.966;16.992;2023-01-05T23:46:00;0;0;0
57049;PMS7003;42935;50.966;16.992;2023-01-05T23:49:17;0;0;0
57049;PMS7003;42935;50.966;16.992;2023-01-05T23:52:24;0;0;0
57049;PMS7003;42935;50.966;16.992;2023-01-05T23:55:35;1;0;0
57049;PMS7003;42935;50.966;16.992;2023-01-05T23:58:46;0;0;0
